This is the latest recevied weather packets stored in our database for station/object N5LSN. If no packets are shown the sender has not sent any weather packets the latest 10 day(s).
| Time | Temp. | Humidity | Pressure | Rain* | Wind** | Luminosity | Snow |
|---|---|---|---|---|---|---|---|
| 1777394667 | 25° C | 93% | 1014.6 hPa | 0 mm | - | 265 W/m² | - |
| 1777394363 | 25° C | 92% | 1014.8 hPa | 0 mm | - | 202 W/m² | - |
| 1777394060 | 25° C | 92% | 1014.9 hPa | 0 mm | - | 386 W/m² | - |
| 1777393754 | 24.44° C | 94% | 1014.4 hPa | 0 mm | - | 560 W/m² | - |
| 1777393449 | 24.44° C | 94% | 1015 hPa | 0 mm | - | 187 W/m² | - |
| 1777393145 | 24.44° C | 93% | 1015 hPa | 0 mm | - | 133 W/m² | - |
| 1777392842 | 24.44° C | 92% | 1014.7 hPa | 0 mm | - | 158 W/m² | - |
| 1777392537 | 25° C | 92% | 1014.3 hPa | 0 mm | - | 407 W/m² | - |
| 1777392233 | 24.44° C | 92% | 1014.7 hPa | 0 mm | - | 353 W/m² | - |
| 1777391629 | 24.44° C | 93% | 1015 hPa | 0 mm | - | 181 W/m² | - |
| 1777391326 | 24.44° C | 93% | 1015.3 hPa | 0 mm | - | 244 W/m² | - |
| 1777391023 | 23.89° C | 95% | 1015.4 hPa | 0 mm | - | 274 W/m² | - |
| 1777390718 | 23.89° C | 94% | 1015.1 hPa | 0 mm | - | 129 W/m² | - |
| 1777390415 | 23.89° C | 94% | 1015.3 hPa | 0 mm | - | 79 W/m² | - |
| 1777390111 | 23.89° C | 95% | 1014.9 hPa | 0 mm | - | 179 W/m² | - |
| 1777389808 | 23.89° C | 95% | 1015.5 hPa | 0 mm | - | 77 W/m² | - |
| 1777389506 | 23.89° C | 95% | 1015.4 hPa | 0 mm | - | 56 W/m² | - |
| 1777389202 | 23.89° C | 95% | 1015.5 hPa | 0 mm | - | 52 W/m² | - |
| 1777388900 | 23.89° C | 94% | 1015.4 hPa | 0 mm | - | 83 W/m² | - |
| 1777388596 | 23.89° C | 94% | 1015.2 hPa | 0 mm | - | 93 W/m² | - |
| 1777388293 | 23.89° C | 95% | 1015 hPa | 0 mm | - | 145 W/m² | - |
| 1777387987 | 23.89° C | 94% | 1015 hPa | 0 mm | - | 125 W/m² | - |
| 1777387684 | 23.89° C | 95% | 1015.2 hPa | 0 mm | - | 79 W/m² | - |
| 1777387380 | 23.89° C | 94% | 1015.2 hPa | 0 mm | - | 159 W/m² | - |
| 1777387075 | 23.89° C | 94% | 1015.2 hPa | 0 mm | - | 123 W/m² | - |
* Rain latest hour (hover to see other rain measurements)
** Current wind speed in m/s (hover to see current wind gust speed)